Time;durP1;ratioP1;P1;durP2;ratioP2;P2;SDS_P1;SDS_P2;PMS_P1;PMS_P2;Temp;Humidity;BMP_temperature;BMP_pressure;BME280_temperature;BME280_humidity;BME280_pressure;Samples;Min_cycle;Max_cycle;Signal;HPM_P1;HPM_P2
2024/02/15 00:01:27;;;;;;;12.27;8.27;;;9.90;99.90;;;;;;5055466;28;20259;-86
2024/02/15 00:03:53;;;;;;;11.90;8.90;;;9.80;99.90;;;;;;5029239;28;20247;-84
2024/02/15 00:06:21;;;;;;;11.95;8.65;;;9.80;99.90;;;;;;5037524;28;20232;-86
2024/02/15 00:08:46;;;;;;;11.52;8.48;;;9.80;99.90;;;;;;5054757;28;20239;-86
2024/02/15 00:11:13;;;;;;;12.70;8.85;;;9.80;99.90;;;;;;5037197;28;20193;-85
2024/02/15 00:13:39;;;;;;;11.65;8.63;;;9.80;99.90;;;;;;5036864;28;20212;-87
2024/02/15 00:16:06;;;;;;;11.63;8.70;;;9.90;99.90;;;;;;5055080;28;20189;-85
2024/02/15 00:18:32;;;;;;;13.15;8.75;;;9.90;99.90;;;;;;5024175;28;20914;-86
2024/02/15 00:20:59;;;;;;;12.10;8.75;;;9.90;99.90;;;;;;5051752;28;20231;-87
2024/02/15 00:23:25;;;;;;;10.30;8.75;;;9.90;99.90;;;;;;5054633;28;20185;-86
2024/02/15 00:25:55;;;;;;;13.23;9.10;;;9.90;99.90;;;;;;5037373;28;20319;-87
2024/02/15 00:28:21;;;;;;;10.77;8.77;;;9.90;99.90;;;;;;5037578;28;20651;-88
2024/02/15 00:30:47;;;;;;;14.05;8.60;;;10.00;99.90;;;;;;5054994;28;20178;-87
2024/02/15 00:33:13;;;;;;;12.43;9.07;;;10.00;99.90;;;;;;5036806;28;20194;-89
2024/02/15 00:35:39;;;;;;;12.23;8.45;;;10.00;99.90;;;;;;5037126;28;20189;-86
2024/02/15 00:38:06;;;;;;;12.20;8.43;;;10.00;99.90;;;;;;5054678;28;20216;-85
2024/02/15 00:40:32;;;;;;;10.80;8.07;;;10.00;99.90;;;;;;5054479;28;20181;-85
2024/02/15 00:42:58;;;;;;;10.27;8.05;;;10.00;99.90;;;;;;5054464;28;20578;-85
2024/02/15 00:45:24;;;;;;;12.98;8.82;;;10.10;99.90;;;;;;5036963;28;20251;-85
2024/02/15 00:47:51;;;;;;;11.05;8.63;;;10.10;99.90;;;;;;5054719;28;20181;-86
2024/02/15 00:50:17;;;;;;;12.00;8.70;;;10.10;99.90;;;;;;5054600;28;20261;-86
2024/02/15 00:52:43;;;;;;;10.90;8.30;;;10.10;99.90;;;;;;5036797;28;20280;-85
2024/02/15 00:55:09;;;;;;;10.90;8.68;;;10.10;99.90;;;;;;5034362;28;20233;-85
2024/02/15 00:57:44;;;;;;;11.20;7.75;;;10.10;99.90;;;;;;5017130;28;20187;-86
2024/02/15 01:00:10;;;;;;;9.77;8.30;;;10.10;99.90;;;;;;5052814;28;20564;-85
2024/02/15 01:02:36;;;;;;;15.15;8.95;;;10.10;99.90;;;;;;5070004;28;20224;-85
2024/02/15 01:05:01;;;;;;;10.73;9.15;;;10.10;99.90;;;;;;5036739;28;20185;-86
2024/02/15 01:07:28;;;;;;;12.18;9.52;;;10.10;99.90;;;;;;5036524;28;20292;-87
2024/02/15 01:09:54;;;;;;;10.93;8.85;;;10.20;99.90;;;;;;5036383;28;20186;-85
2024/02/15 01:12:21;;;;;;;12.63;9.27;;;10.20;99.90;;;;;;5046099;28;20659;-85
2024/02/15 01:14:47;;;;;;;13.20;9.00;;;10.10;99.90;;;;;;5036671;28;20186;-86
2024/02/15 01:17:17;;;;;;;11.80;9.18;;;10.10;99.90;;;;;;5052268;28;20188;-86
2024/02/15 01:19:43;;;;;;;10.70;7.57;;;10.20;99.90;;;;;;5031179;28;20363;-86
2024/02/15 01:22:12;;;;;;;12.95;8.93;;;10.20;99.90;;;;;;5054521;28;20213;-86
2024/02/15 01:24:38;;;;;;;10.57;8.38;;;10.10;99.90;;;;;;5038913;28;20185;-85
2024/02/15 01:27:04;;;;;;;11.93;8.18;;;10.20;99.90;;;;;;5512180;22;20243;-83
2024/02/15 01:29:30;;;;;;;9.20;7.82;;;10.20;99.90;;;;;;4996855;28;20196;-85
2024/02/15 01:31:55;;;;;;;9.48;8.10;;;10.20;99.90;;;;;;5003868;28;20278;-85
2024/02/15 01:34:21;;;;;;;9.73;8.23;;;10.20;99.90;;;;;;5004933;28;20211;-88
2024/02/15 01:36:50;;;;;;;11.45;8.32;;;10.20;99.90;;;;;;4997068;28;20187;-84
2024/02/15 01:39:16;;;;;;;13.45;8.20;;;10.30;99.90;;;;;;4998007;28;20211;-84
2024/02/15 01:41:55;;;;;;;11.50;8.25;;;10.30;99.90;;;;;;4996545;28;20246;-83
2024/02/15 01:44:24;;;;;;;9.70;7.80;;;10.30;99.90;;;;;;5004816;28;20278;-86
2024/02/15 01:46:54;;;;;;;11.27;9.05;;;10.30;99.90;;;;;;4998098;28;20176;-85
2024/02/15 01:49:24;;;;;;;9.05;8.05;;;10.30;99.90;;;;;;4996398;28;20184;-86
2024/02/15 01:51:53;;;;;;;11.00;7.60;;;10.30;99.90;;;;;;4996640;28;20191;-85
2024/02/15 01:54:19;;;;;;;10.18;7.68;;;10.30;99.90;;;;;;4996523;28;20210;-83
2024/02/15 01:56:45;;;;;;;10.77;7.97;;;10.30;99.90;;;;;;4996586;28;20286;-86
2024/02/15 01:59:14;;;;;;;9.15;7.43;;;10.30;99.90;;;;;;4996243;28;20191;-85
2024/02/15 02:01:41;;;;;;;10.25;7.90;;;10.30;99.90;;;;;;5000344;28;20661;-84
2024/02/15 02:04:09;;;;;;;10.93;8.40;;;10.30;99.90;;;;;;5000865;28;20630;-86
2024/02/15 02:06:36;;;;;;;10.32;7.57;;;10.30;99.90;;;;;;5010966;28;20576;-84
2024/02/15 02:09:03;;;;;;;11.32;7.68;;;10.30;99.90;;;;;;4996451;28;20192;-85
2024/02/15 02:11:29;;;;;;;10.00;7.40;;;10.40;99.90;;;;;;4996376;28;20199;-85
2024/02/15 02:13:56;;;;;;;10.27;7.15;;;10.30;99.90;;;;;;4996317;28;20618;-85
2024/02/15 02:16:28;;;;;;;11.02;8.18;;;10.30;99.90;;;;;;5004569;28;20653;-85
2024/02/15 02:18:58;;;;;;;11.13;8.10;;;10.30;99.90;;;;;;4995914;28;20271;-85
2024/02/15 02:21:26;;;;;;;11.57;7.95;;;10.30;99.90;;;;;;5007831;28;20219;-87
2024/02/15 02:24:07;;;;;;;9.27;7.43;;;10.30;99.90;;;;;;5015577;28;20218;-85
2024/02/15 02:26:37;;;;;;;10.13;7.30;;;10.30;99.90;;;;;;4996340;28;20203;-84
2024/02/15 02:29:07;;;;;;;10.25;7.38;;;10.30;99.90;;;;;;5014067;28;20209;-85
2024/02/15 02:31:36;;;;;;;9.90;6.88;;;10.30;99.90;;;;;;4997075;28;20199;-85
2024/02/15 02:34:03;;;;;;;10.52;7.25;;;10.30;99.90;;;;;;4998920;28;20187;-85
2024/02/15 02:36:29;;;;;;;10.30;6.93;;;10.30;99.90;;;;;;4994224;28;20192;-85
2024/02/15 02:39:00;;;;;;;9.35;6.88;;;10.30;99.90;;;;;;4995794;28;20678;-85
2024/02/15 02:41:29;;;;;;;8.80;6.50;;;10.30;99.90;;;;;;4999178;28;20222;-86
2024/02/15 02:43:58;;;;;;;8.82;6.80;;;10.30;99.90;;;;;;4990861;28;20191;-85
2024/02/15 02:46:24;;;;;;;9.32;7.00;;;10.30;99.90;;;;;;4998898;28;20191;-85
2024/02/15 02:48:49;;;;;;;10.20;7.45;;;10.30;99.90;;;;;;4998982;28;20194;-85
2024/02/15 02:51:16;;;;;;;9.05;6.97;;;10.30;99.90;;;;;;4996343;28;20552;-85
2024/02/15 02:53:41;;;;;;;8.93;6.82;;;10.30;99.90;;;;;;5010919;28;20179;-85
2024/02/15 02:56:10;;;;;;;9.68;7.10;;;10.30;99.90;;;;;;4998658;28;20270;-87
2024/02/15 02:58:36;;;;;;;8.95;6.47;;;10.30;99.90;;;;;;5016261;28;20213;-86
2024/02/15 03:01:02;;;;;;;11.88;6.88;;;10.30;99.90;;;;;;4981965;28;20231;-84
2024/02/15 03:03:29;;;;;;;8.23;5.93;;;10.30;99.90;;;;;;4994187;28;20202;-86
2024/02/15 03:05:55;;;;;;;10.77;6.50;;;10.30;99.90;;;;;;4987273;28;20194;-86
2024/02/15 03:08:22;;;;;;;10.43;7.07;;;10.30;99.90;;;;;;5014804;28;20187;-85
2024/02/15 03:10:48;;;;;;;12.55;7.13;;;10.30;99.90;;;;;;4991712;28;20188;-83
2024/02/15 03:13:13;;;;;;;10.30;6.07;;;10.30;99.90;;;;;;5014661;28;20221;-85
2024/02/15 03:15:41;;;;;;;8.00;6.28;;;10.30;99.90;;;;;;4990390;28;20195;-86
2024/02/15 03:18:08;;;;;;;8.73;6.47;;;10.30;99.90;;;;;;4997943;28;20187;-85
2024/02/15 03:20:37;;;;;;;8.48;6.55;;;10.30;99.90;;;;;;4990283;28;20197;-85
2024/02/15 03:23:03;;;;;;;10.32;6.60;;;10.30;99.90;;;;;;5015603;28;20219;-86
2024/02/15 03:25:29;;;;;;;11.93;6.55;;;10.30;99.90;;;;;;4993997;28;20206;-84
2024/02/15 03:28:02;;;;;;;8.02;5.95;;;10.30;99.90;;;;;;5015035;28;20227;-85
2024/02/15 03:30:30;;;;;;;9.02;6.40;;;10.40;99.90;;;;;;5027006;28;20186;-85
2024/02/15 03:32:57;;;;;;;8.27;6.22;;;10.40;99.90;;;;;;5025971;28;20187;-86
2024/02/15 03:35:26;;;;;;;7.15;5.72;;;10.40;99.90;;;;;;5034325;28;20190;-85
2024/02/15 03:37:52;;;;;;;8.05;6.13;;;10.40;99.90;;;;;;5035496;28;20237;-85
2024/02/15 03:40:19;;;;;;;8.43;6.00;;;10.40;99.90;;;;;;5034930;28;20187;-85
2024/02/15 03:42:52;;;;;;;9.13;6.43;;;10.40;99.90;;;;;;5034058;28;20218;-88
2024/02/15 03:45:18;;;;;;;8.18;5.72;;;10.40;99.90;;;;;;5033861;28;20213;-85
2024/02/15 03:47:44;;;;;;;7.15;5.97;;;10.40;99.90;;;;;;5032755;28;20224;-84
2024/02/15 03:50:10;;;;;;;7.53;5.63;;;10.40;99.90;;;;;;5035012;28;20185;-85
2024/02/15 03:52:36;;;;;;;9.30;6.25;;;10.40;99.90;;;;;;5034978;28;20520;-86
2024/02/15 03:55:02;;;;;;;7.28;5.60;;;10.40;99.90;;;;;;5033302;28;20562;-84
2024/02/15 03:57:29;;;;;;;12.10;6.28;;;10.40;99.90;;;;;;5033884;28;20294;-84
2024/02/15 03:59:56;;;;;;;7.57;6.03;;;10.40;99.90;;;;;;5034775;28;20715;-85
2024/02/15 04:02:26;;;;;;;10.10;5.90;;;10.40;99.90;;;;;;5030237;28;20211;-86
2024/02/15 04:04:56;;;;;;;9.13;6.28;;;10.40;99.90;;;;;;5013959;28;20598;-86
2024/02/15 04:07:26;;;;;;;9.70;6.18;;;10.40;99.90;;;;;;5023153;28;20187;-86
2024/02/15 04:09:53;;;;;;;14.50;6.93;;;10.40;99.90;;;;;;5017052;28;20274;-86
2024/02/15 04:12:18;;;;;;;7.35;5.93;;;10.40;99.90;;;;;;5014035;28;20187;-85
2024/02/15 04:14:45;;;;;;;10.73;6.10;;;10.40;99.90;;;;;;5019902;28;20229;-86
2024/02/15 04:17:16;;;;;;;8.15;5.80;;;10.40;99.90;;;;;;5013799;28;20198;-87
2024/02/15 04:19:46;;;;;;;8.18;5.78;;;10.40;99.90;;;;;;5013470;28;20195;-88
2024/02/15 04:22:12;;;;;;;7.32;5.43;;;10.40;99.90;;;;;;5014838;28;20211;-87
2024/02/15 04:24:41;;;;;;;8.27;5.60;;;10.40;99.90;;;;;;5021891;28;20264;-85
2024/02/15 04:27:17;;;;;;;8.38;5.45;;;10.40;99.90;;;;;;5013562;28;20238;-86
2024/02/15 04:29:44;;;;;;;8.02;5.78;;;10.40;99.90;;;;;;5013920;28;20233;-86
2024/02/15 04:32:11;;;;;;;8.85;5.63;;;10.40;99.90;;;;;;5021757;28;20191;-84
2024/02/15 04:34:37;;;;;;;7.43;5.10;;;10.40;99.90;;;;;;5013089;28;20614;-86
2024/02/15 04:37:06;;;;;;;8.20;5.45;;;10.40;99.90;;;;;;5013543;28;20202;-87
2024/02/15 04:39:33;;;;;;;7.40;5.63;;;10.40;99.90;;;;;;5021543;28;20187;-87
2024/02/15 04:42:00;;;;;;;6.88;5.32;;;10.40;99.90;;;;;;5021808;28;20214;-84
2024/02/15 04:44:27;;;;;;;6.38;5.43;;;10.40;99.90;;;;;;5021240;28;20187;-85
2024/02/15 04:46:54;;;;;;;7.20;5.55;;;10.40;99.90;;;;;;5013369;28;20193;-85
2024/02/15 04:49:20;;;;;;;7.20;5.70;;;10.40;99.90;;;;;;5024099;28;20635;-83
2024/02/15 04:51:47;;;;;;;6.72;5.35;;;10.40;99.90;;;;;;5019596;28;20585;-85
2024/02/15 04:54:14;;;;;;;9.73;5.75;;;10.40;99.90;;;;;;5015427;28;20222;-85
2024/02/15 04:56:40;;;;;;;7.60;5.75;;;10.40;99.90;;;;;;5024965;28;20233;-86
2024/02/15 04:59:15;;;;;;;10.10;5.95;;;10.40;99.90;;;;;;5025841;28;20214;-85
2024/02/15 05:01:45;;;;;;;7.85;6.10;;;10.40;99.90;;;;;;5017266;28;20210;-86
2024/02/15 05:04:12;;;;;;;9.85;6.20;;;10.40;99.90;;;;;;5017060;28;20202;-86
2024/02/15 05:06:38;;;;;;;6.75;5.80;;;10.40;99.90;;;;;;5023836;28;20186;-85
2024/02/15 05:09:09;;;;;;;8.90;5.93;;;10.40;99.90;;;;;;5038274;28;20185;-86
2024/02/15 05:11:41;;;;;;;7.53;5.60;;;10.40;99.90;;;;;;5037053;28;20205;-85
2024/02/15 05:14:07;;;;;;;9.95;5.95;;;10.40;99.90;;;;;;5036577;28;20186;-85
2024/02/15 05:16:34;;;;;;;6.25;5.40;;;10.40;99.90;;;;;;5036773;28;20198;-87
2024/02/15 05:19:00;;;;;;;6.97;5.50;;;10.40;99.90;;;;;;5036527;28;20186;-84
2024/02/15 05:21:27;;;;;;;8.20;5.75;;;10.40;99.90;;;;;;5036416;28;20214;-86
2024/02/15 05:23:53;;;;;;;8.52;5.55;;;10.40;99.90;;;;;;5036618;28;20193;-85
2024/02/15 05:26:23;;;;;;;7.20;5.47;;;10.40;99.90;;;;;;5037756;28;20182;-85
2024/02/15 05:28:52;;;;;;;8.15;5.18;;;10.40;99.90;;;;;;5036439;28;20261;-85
2024/02/15 05:31:20;;;;;;;7.20;5.70;;;10.40;99.90;;;;;;5036468;28;20186;-86
2024/02/15 05:33:49;;;;;;;7.03;5.00;;;10.40;99.90;;;;;;5037431;28;20182;-85
2024/02/15 05:36:20;;;;;;;8.15;5.90;;;10.30;99.90;;;;;;5027022;28;20222;-85
2024/02/15 05:38:47;;;;;;;9.07;5.15;;;10.30;99.90;;;;;;5016597;28;20277;-85
2024/02/15 05:41:13;;;;;;;6.25;5.05;;;10.40;99.90;;;;;;5016474;28;20629;-85
2024/02/15 05:43:41;;;;;;;8.18;5.68;;;10.40;99.90;;;;;;5024740;28;20525;-84
2024/02/15 05:46:07;;;;;;;8.95;5.55;;;10.30;99.90;;;;;;5024616;28;20195;-86
2024/02/15 05:48:37;;;;;;;6.75;5.90;;;10.30;99.90;;;;;;5016246;28;20199;-87
2024/02/15 05:51:05;;;;;;;6.95;5.53;;;10.30;99.90;;;;;;5024529;28;20260;-87
2024/02/15 05:53:35;;;;;;;7.35;5.32;;;10.30;99.90;;;;;;5017677;28;20183;-85
2024/02/15 05:56:12;;;;;;;8.43;5.65;;;10.30;99.90;;;;;;5023897;28;20234;-86
2024/02/15 05:58:39;;;;;;;9.57;5.15;;;10.30;99.90;;;;;;5024709;28;20191;-86
2024/02/15 06:01:06;;;;;;;6.90;4.88;;;10.20;99.90;;;;;;5015942;28;20214;-85
2024/02/15 06:03:33;;;;;;;9.10;5.10;;;10.30;99.90;;;;;;5024307;28;20183;-85
2024/02/15 06:06:06;;;;;;;6.82;5.57;;;10.30;99.90;;;;;;5023095;28;20186;-85
2024/02/15 06:08:33;;;;;;;8.73;5.68;;;10.30;99.90;;;;;;5023494;28;20287;-85
2024/02/15 06:10:59;;;;;;;7.50;6.05;;;10.30;99.90;;;;;;5014180;28;20238;-85
2024/02/15 06:13:26;;;;;;;11.38;5.40;;;10.30;99.90;;;;;;5023911;28;20179;-85
2024/02/15 06:15:53;;;;;;;8.05;5.53;;;10.30;99.90;;;;;;5016123;28;20183;-86
2024/02/15 06:18:24;;;;;;;11.07;6.55;;;10.30;99.90;;;;;;5023864;28;20183;-87
2024/02/15 06:20:56;;;;;;;9.27;6.18;;;10.40;99.90;;;;;;5024735;28;20182;-85
2024/02/15 06:23:23;;;;;;;7.40;5.63;;;10.40;99.90;;;;;;5019247;28;20214;-86
2024/02/15 06:25:56;;;;;;;6.32;4.93;;;10.40;99.90;;;;;;5032870;28;20194;-85
2024/02/15 06:39:42;;;;;;;6.85;5.28;;;10.40;99.90;;;;;;5016924;28;20672;-85
2024/02/15 06:42:11;;;;;;;9.60;5.50;;;10.50;99.90;;;;;;5023580;28;20648;-86
2024/02/15 06:44:40;;;;;;;8.43;5.72;;;10.50;99.90;;;;;;5015512;28;20266;-86
2024/02/15 06:47:07;;;;;;;8.50;5.68;;;10.40;99.90;;;;;;5023622;28;20179;-86
2024/02/15 06:49:33;;;;;;;7.30;5.38;;;10.50;99.90;;;;;;5015320;28;20180;-85
2024/02/15 06:52:01;;;;;;;6.55;5.78;;;10.50;99.90;;;;;;5015412;28;20219;-85
2024/02/15 06:54:28;;;;;;;6.00;5.35;;;10.50;99.90;;;;;;5023579;28;20242;-86
2024/02/15 06:56:54;;;;;;;8.60;6.30;;;10.50;99.90;;;;;;5028403;28;20687;-86
2024/02/15 06:59:22;;;;;;;10.77;6.30;;;10.50;99.90;;;;;;5034879;28;20187;-85
2024/02/15 07:01:52;;;;;;;7.95;6.28;;;10.50;99.90;;;;;;5035127;28;20598;-86
2024/02/15 07:04:19;;;;;;;8.57;6.03;;;10.50;99.90;;;;;;5026519;28;20186;-85
2024/02/15 07:06:47;;;;;;;7.20;6.30;;;10.50;99.90;;;;;;5034843;28;20186;-84
2024/02/15 07:09:15;;;;;;;8.40;6.60;;;10.50;99.90;;;;;;5016309;28;20241;-86
2024/02/15 07:11:41;;;;;;;7.30;6.22;;;10.50;99.90;;;;;;5015940;28;20202;-86
2024/02/15 07:14:08;;;;;;;8.23;6.18;;;10.50;99.90;;;;;;5031300;28;20217;-86
2024/02/15 07:16:34;;;;;;;8.52;6.35;;;10.50;99.90;;;;;;5015227;28;20183;-86
2024/02/15 07:19:03;;;;;;;7.13;5.80;;;10.60;99.90;;;;;;5022895;28;20312;-85
2024/02/15 07:21:29;;;;;;;7.45;6.03;;;10.60;99.90;;;;;;5014728;28;20215;-87
2024/02/15 07:23:55;;;;;;;9.48;5.70;;;10.60;99.90;;;;;;5014871;28;20703;-85
2024/02/15 07:26:24;;;;;;;7.75;5.82;;;10.60;99.90;;;;;;5026041;28;20186;-86
2024/02/15 07:28:55;;;;;;;6.20;5.53;;;10.60;99.90;;;;;;5020426;28;20309;-86
2024/02/15 07:31:21;;;;;;;8.68;5.30;;;10.60;99.90;;;;;;5014646;28;20269;-86
2024/02/15 07:33:51;;;;;;;7.00;5.45;;;10.60;99.90;;;;;;5014471;28;20179;-87
2024/02/15 07:36:23;;;;;;;6.40;5.40;;;10.70;99.90;;;;;;5015788;28;20191;-86
2024/02/15 07:38:50;;;;;;;7.53;5.15;;;10.70;99.90;;;;;;5014499;28;20179;-86
2024/02/15 07:41:22;;;;;;;7.13;5.30;;;10.70;99.90;;;;;;5015368;28;20183;-87
2024/02/15 07:43:48;;;;;;;6.82;5.13;;;10.70;99.90;;;;;;5014514;28;20194;-87
2024/02/15 07:46:16;;;;;;;7.60;5.22;;;10.70;99.90;;;;;;5022513;28;20187;-86
2024/02/15 07:48:46;;;;;;;7.05;5.07;;;10.70;99.90;;;;;;5015653;28;20182;-86
2024/02/15 07:51:16;;;;;;;7.55;4.93;;;10.70;99.90;;;;;;5014229;28;20191;-86
2024/02/15 07:53:42;;;;;;;8.38;5.43;;;10.70;99.90;;;;;;5014332;28;20187;-87
2024/02/15 07:56:13;;;;;;;5.72;4.70;;;10.70;99.90;;;;;;5022004;28;20210;-86
2024/02/15 07:58:48;;;;;;;9.50;6.70;;;10.70;99.90;;;;;;5015442;28;20179;-86
2024/02/15 08:01:16;;;;;;;7.32;5.40;;;10.70;99.90;;;;;;5032455;28;20248;-85
2024/02/15 08:03:46;;;;;;;8.60;5.55;;;10.80;99.90;;;;;;5028101;28;20183;-87
2024/02/15 08:06:12;;;;;;;7.50;5.32;;;10.80;99.90;;;;;;5014396;28;20622;-87
2024/02/15 08:08:41;;;;;;;7.50;5.93;;;10.80;99.90;;;;;;5014304;28;20187;-86
2024/02/15 08:11:14;;;;;;;7.40;5.55;;;10.90;99.90;;;;;;5021932;28;20178;-87
2024/02/15 08:13:50;;;;;;;9.10;5.90;;;10.90;99.90;;;;;;5013901;28;20187;-86
2024/02/15 08:16:16;;;;;;;6.03;5.20;;;10.90;99.90;;;;;;5013937;28;20175;-86
2024/02/15 08:18:43;;;;;;;6.45;4.70;;;10.90;99.90;;;;;;5013893;28;20247;-86
2024/02/15 08:21:10;;;;;;;9.02;4.60;;;11.00;99.90;;;;;;5014792;28;20186;-86
2024/02/15 08:23:36;;;;;;;9.23;4.68;;;11.00;99.90;;;;;;5021806;28;20516;-86
2024/02/15 08:26:02;;;;;;;6.40;5.05;;;11.00;99.90;;;;;;5019444;28;20181;-87
2024/02/15 08:28:28;;;;;;;6.30;4.45;;;11.00;99.90;;;;;;5013491;28;20230;-86
2024/02/15 08:30:57;;;;;;;8.18;4.93;;;11.10;99.90;;;;;;5013741;28;20217;-87
2024/02/15 08:33:28;;;;;;;6.78;4.80;;;11.10;99.90;;;;;;5034266;28;20254;-87
2024/02/15 08:35:55;;;;;;;6.10;4.07;;;11.20;99.90;;;;;;5033445;28;20265;-86
2024/02/15 08:38:25;;;;;;;10.77;4.85;;;11.20;99.90;;;;;;5030189;28;20210;-87
2024/02/15 08:40:51;;;;;;;7.60;4.03;;;11.10;99.90;;;;;;5029119;28;20198;-87
2024/02/15 08:43:17;;;;;;;5.68;4.13;;;11.20;99.90;;;;;;5032837;28;20210;-87
2024/02/15 08:45:43;;;;;;;6.85;4.32;;;11.10;99.90;;;;;;5034504;28;20193;-87
2024/02/15 08:48:09;;;;;;;4.80;3.85;;;11.10;99.90;;;;;;5034389;28;20617;-86
2024/02/15 08:50:35;;;;;;;6.05;3.70;;;11.20;99.90;;;;;;5029088;28;20178;-86
2024/02/15 08:53:01;;;;;;;6.88;4.35;;;11.20;99.90;;;;;;5029944;28;20190;-85
2024/02/15 08:55:27;;;;;;;7.18;3.85;;;11.30;99.90;;;;;;5020556;28;20175;-85
2024/02/15 08:57:54;;;;;;;6.20;3.70;;;11.30;99.90;;;;;;5014616;28;20187;-86
2024/02/15 09:00:20;;;;;;;5.20;3.53;;;11.30;99.90;;;;;;5014550;28;20206;-86
2024/02/15 09:02:48;;;;;;;5.75;4.00;;;11.40;99.90;;;;;;5013247;28;20246;-87
2024/02/15 09:05:15;;;;;;;5.70;3.75;;;11.40;99.90;;;;;;5015531;28;20179;-87
2024/02/15 09:07:42;;;;;;;5.95;3.65;;;11.40;99.90;;;;;;5033143;28;20200;-86
2024/02/15 09:10:12;;;;;;;6.65;3.53;;;11.50;99.90;;;;;;5031143;28;20210;-86
2024/02/15 09:12:39;;;;;;;4.57;2.92;;;11.50;99.90;;;;;;5013350;28;20183;-87
2024/02/15 09:15:07;;;;;;;5.55;3.08;;;11.60;99.90;;;;;;5022492;28;20203;-86
2024/02/15 09:17:38;;;;;;;3.80;2.78;;;11.60;99.90;;;;;;5013417;28;20684;-85
2024/02/15 09:20:07;;;;;;;8.90;3.38;;;11.70;99.90;;;;;;5021050;28;20187;-85
2024/02/15 09:22:33;;;;;;;7.00;3.38;;;11.80;99.90;;;;;;5013073;28;20298;-87
2024/02/15 09:24:59;;;;;;;4.28;2.40;;;11.80;99.90;;;;;;5029183;28;20183;-85
2024/02/15 09:27:24;;;;;;;4.40;2.70;;;11.90;99.90;;;;;;5024991;28;20260;-87
2024/02/15 09:29:50;;;;;;;5.47;2.67;;;11.90;99.90;;;;;;5025081;28;20249;-86
2024/02/15 09:32:16;;;;;;;5.05;2.42;;;12.00;99.90;;;;;;5015005;28;20175;-86
2024/02/15 09:34:42;;;;;;;4.63;2.42;;;12.00;99.90;;;;;;5013065;28;20183;-86
2024/02/15 09:37:07;;;;;;;4.85;2.10;;;12.00;99.90;;;;;;5030667;28;20179;-87
2024/02/15 09:39:35;;;;;;;4.88;2.40;;;12.10;99.90;;;;;;5033578;28;20190;-84
2024/02/15 09:42:01;;;;;;;4.18;2.67;;;12.00;99.90;;;;;;5032782;28;20225;-86
2024/02/15 09:44:29;;;;;;;6.32;2.58;;;12.00;99.90;;;;;;5029925;28;20179;-87
2024/02/15 09:47:06;;;;;;;5.65;2.92;;;12.10;99.90;;;;;;5032597;28;20684;-87
2024/02/15 09:49:39;;;;;;;7.20;3.08;;;12.20;99.90;;;;;;5036237;28;20182;-87
2024/02/15 09:52:15;;;;;;;8.55;2.78;;;12.20;99.90;;;;;;5036563;28;20225;-86
2024/02/15 09:54:45;;;;;;;6.20;3.08;;;12.20;99.90;;;;;;5029954;28;20183;-88
2024/02/15 09:57:11;;;;;;;7.82;3.00;;;12.30;99.90;;;;;;5025769;28;20191;-86
2024/02/15 09:59:41;;;;;;;7.03;3.08;;;12.40;99.90;;;;;;5021771;28;20175;-87
2024/02/15 10:02:10;;;;;;;8.15;3.38;;;12.40;99.90;;;;;;5018590;28;20231;-89
2024/02/15 10:04:39;;;;;;;7.47;3.22;;;12.50;99.90;;;;;;5024601;28;20633;-87
2024/02/15 10:07:05;;;;;;;4.18;2.83;;;12.60;99.90;;;;;;5025181;28;20187;-86
2024/02/15 10:09:31;;;;;;;7.30;3.13;;;12.60;99.90;;;;;;5023056;28;20191;-87
2024/02/15 10:11:59;;;;;;;9.60;3.00;;;12.60;99.90;;;;;;5025383;28;20178;-87
2024/02/15 10:14:29;;;;;;;5.88;3.10;;;12.70;99.90;;;;;;5037243;28;20179;-88
2024/02/15 10:16:56;;;;;;;5.05;3.03;;;12.80;99.90;;;;;;5021199;28;20175;-87
2024/02/15 10:19:24;;;;;;;10.10;3.20;;;12.80;99.90;;;;;;5024191;28;20619;-87
2024/02/15 10:21:55;;;;;;;6.63;2.70;;;12.90;99.90;;;;;;5016215;28;20545;-87
2024/02/15 10:24:24;;;;;;;6.60;2.67;;;12.90;99.90;;;;;;5029847;28;20190;-87
2024/02/15 10:26:50;;;;;;;4.45;2.70;;;12.90;99.90;;;;;;5015762;28;20179;-88
2024/02/15 10:29:17;;;;;;;3.33;2.20;;;12.90;99.90;;;;;;5016096;28;20187;-86
2024/02/15 10:32:02;;;;;;;8.60;2.72;;;12.90;99.90;;;;;;5016136;28;20610;-87
2024/02/15 10:34:28;;;;;;;3.45;2.15;;;13.00;99.90;;;;;;5024226;28;20210;-89
2024/02/15 10:36:57;;;;;;;3.38;2.45;;;13.00;99.90;;;;;;5024708;28;20178;-87
2024/02/15 10:39:23;;;;;;;3.47;2.38;;;13.00;99.90;;;;;;5036785;28;20178;-87
2024/02/15 10:41:54;;;;;;;5.43;2.60;;;13.00;99.90;;;;;;5036888;28;20202;-88
2024/02/15 10:44:25;;;;;;;2.95;1.85;;;13.10;99.90;;;;;;5035335;28;20183;-86
2024/02/15 10:46:53;;;;;;;3.70;2.05;;;13.10;99.90;;;;;;5035382;28;20178;-88
2024/02/15 10:49:26;;;;;;;4.38;2.17;;;13.20;99.90;;;;;;5035273;28;20194;-87
2024/02/15 10:51:58;;;;;;;3.67;2.30;;;13.10;99.90;;;;;;5036487;28;20185;-88
2024/02/15 10:54:50;;;;;;;6.95;2.30;;;13.20;99.90;;;;;;5031385;28;20209;-87
2024/02/15 10:57:22;;;;;;;3.90;1.90;;;13.10;99.90;;;;;;5015438;28;20206;-87
2024/02/15 10:59:58;;;;;;;3.55;1.92;;;13.10;99.90;;;;;;5028244;28;20207;-87
2024/02/15 11:02:30;;;;;;;3.90;1.50;;;13.20;99.90;;;;;;5026923;28;20286;-86
2024/02/15 11:05:04;;;;;;;3.83;2.08;;;13.10;99.90;;;;;;5020111;28;20179;-88
2024/02/15 11:07:31;;;;;;;5.10;1.55;;;13.10;99.90;;;;;;5016504;28;20269;-87
2024/02/15 11:09:58;;;;;;;5.07;1.50;;;13.00;99.90;;;;;;5035479;28;20616;-86
2024/02/15 11:12:28;;;;;;;5.03;1.50;;;13.00;99.90;;;;;;5036307;28;20178;-87
2024/02/15 11:14:55;;;;;;;4.13;1.88;;;12.90;99.90;;;;;;5023472;28;20232;-86
2024/02/15 11:17:48;;;;;;;4.95;2.33;;;12.90;99.90;;;;;;5035771;28;20274;-85
2024/02/15 11:20:35;;;;;;;7.07;1.85;;;12.90;99.90;;;;;;5027533;28;20198;-86
2024/02/15 11:23:05;;;;;;;3.05;1.75;;;12.90;99.90;;;;;;5046724;28;20213;-87
2024/02/15 11:25:36;;;;;;;2.45;1.70;;;12.90;99.90;;;;;;5039362;28;20186;-87
2024/02/15 11:28:21;;;;;;;4.32;1.83;;;12.90;99.90;;;;;;5017055;28;20234;-87
2024/02/15 11:30:50;;;;;;;2.17;1.38;;;13.00;99.90;;;;;;5034499;28;20182;-86
2024/02/15 11:33:35;;;;;;;5.80;1.75;;;13.00;99.90;;;;;;5035291;28;20562;-87
2024/02/15 11:36:12;;;;;;;4.50;1.60;;;13.00;99.90;;;;;;5027098;28;20635;-87
2024/02/15 11:38:41;;;;;;;3.17;1.70;;;13.00;99.90;;;;;;5028268;28;20631;-88
2024/02/15 11:43:59;;;;;;;2.10;1.40;;;13.10;99.90;;;;;;5030263;28;20229;-85
2024/02/15 11:46:27;;;;;;;6.97;1.92;;;13.00;99.90;;;;;;5034355;28;20191;-90
2024/02/15 11:48:54;;;;;;;2.22;1.58;;;13.10;99.90;;;;;;5027559;28;20222;-87
2024/02/15 11:51:42;;;;;;;5.38;1.80;;;13.10;99.90;;;;;;5023126;28;20243;-88
2024/02/15 11:54:20;;;;;;;6.63;1.90;;;13.00;99.90;;;;;;5029794;28;20199;-89
2024/02/15 11:57:13;;;;;;;5.35;1.85;;;13.00;99.90;;;;;;5015303;28;20183;-87
2024/02/15 12:19:00;;;;;;;4.30;1.80;;;12.90;99.90;;;;;;5030655;28;20241;-88
2024/02/15 12:21:27;;;;;;;6.18;2.30;;;12.80;99.90;;;;;;5026623;28;20221;-86
2024/02/15 12:23:53;;;;;;;6.13;1.95;;;12.80;99.90;;;;;;5034129;28;20190;-87
2024/02/15 12:26:24;;;;;;;6.45;1.80;;;12.80;99.90;;;;;;5034036;28;20189;-86
2024/02/15 12:28:54;;;;;;;5.32;2.20;;;12.70;99.90;;;;;;5034194;28;20234;-87
2024/02/15 12:31:20;;;;;;;4.25;1.95;;;12.70;99.90;;;;;;5031919;28;20193;-86
2024/02/15 12:33:48;;;;;;;5.50;2.22;;;12.60;99.90;;;;;;5025099;28;20183;-86
2024/02/15 12:36:17;;;;;;;6.90;2.50;;;12.60;99.90;;;;;;5025337;28;20515;-85
2024/02/15 12:38:44;;;;;;;3.42;2.20;;;12.60;99.90;;;;;;5040368;28;20545;-84
2024/02/15 12:41:20;;;;;;;4.63;2.60;;;12.60;99.90;;;;;;5024261;28;20261;-86
2024/02/15 12:43:51;;;;;;;3.85;2.38;;;12.50;99.90;;;;;;5028914;28;20524;-85
2024/02/15 12:46:22;;;;;;;6.00;2.25;;;12.50;99.90;;;;;;5025625;28;20185;-86
2024/02/15 12:48:49;;;;;;;4.85;2.22;;;12.50;99.90;;;;;;5034136;28;20202;-85
2024/02/15 12:51:15;;;;;;;5.40;2.70;;;12.40;99.90;;;;;;5025570;28;20178;-86
2024/02/15 12:53:42;;;;;;;7.03;2.35;;;12.40;99.90;;;;;;5033680;28;20212;-87
2024/02/15 12:56:13;;;;;;;7.47;3.55;;;12.40;99.90;;;;;;5034516;28;20639;-88
2024/02/15 12:58:40;;;;;;;6.70;2.45;;;12.40;99.90;;;;;;5028183;28;20517;-87
2024/02/15 13:01:06;;;;;;;7.53;2.63;;;12.50;99.90;;;;;;5032462;28;20182;-87
2024/02/15 13:03:32;;;;;;;5.75;2.50;;;12.60;99.90;;;;;;5032937;28;20210;-88
2024/02/15 13:06:02;;;;;;;7.63;2.22;;;12.60;99.90;;;;;;5024860;28;20503;-87
2024/02/15 13:08:27;;;;;;;3.90;2.30;;;12.60;99.90;;;;;;5016825;28;20205;-87
2024/02/15 13:10:53;;;;;;;6.35;2.17;;;12.60;99.90;;;;;;5031315;28;20186;-86
2024/02/15 13:13:21;;;;;;;5.22;2.13;;;12.70;99.90;;;;;;5025296;28;20190;-87
2024/02/15 13:15:53;;;;;;;5.70;2.30;;;12.70;99.90;;;;;;5038308;28;20175;-86
2024/02/15 13:18:19;;;;;;;4.45;2.42;;;12.70;99.90;;;;;;5022921;28;20638;-87
2024/02/15 13:20:45;;;;;;;3.50;1.90;;;12.60;99.90;;;;;;5032901;28;20198;-87
2024/02/15 13:23:25;;;;;;;3.03;1.85;;;12.70;99.90;;;;;;5037471;28;20267;-87
2024/02/15 13:25:55;;;;;;;7.15;2.38;;;12.70;99.90;;;;;;5033305;28;20261;-86